Terraville, South Dakota
Current Conditions -  °F | °C
As of 9:35 AM on Friday 19 Dec 2014 (Local Time) from KSPF Reporting Station
Clear Clear  
Wind Chill: 36°   Ceiling: Unl
Heat Index: 36°   Visibility: 10mi
Dew Point: 19°   Wind: 0mph
Humidity: 52%   Direction: NA
Pressure: 29.98"   Gusts: NA
Location:  44.253°N, 103.912°W
Report Text: KSPF 191635Z AUTO 00000KT 10SM CLR 02/M07 A2998 RMK AO2
Loading
Personal Weather Stations






























Interactive Weather Map New forecast layout! Learn more

10-Day Weather Forecast

Advertisements
Track Severe Weather on mobile